createdAt,value
2018-06-11T00:04:58.535Z,13.60
2018-06-11T00:10:01.989Z,14.10
2018-06-11T00:15:05.434Z,14.10
2018-06-11T00:20:08.914Z,14.10
2018-06-11T00:25:12.182Z,14.20
2018-06-11T00:30:15.578Z,15.37
2018-06-11T00:35:18.900Z,16.30
2018-06-11T00:40:22.203Z,16.10
2018-06-11T00:45:26.496Z,15.80
2018-06-11T00:50:29.821Z,17.63
2018-06-11T00:55:44.314Z,18.10
2018-06-11T01:00:47.638Z,18.05
2018-06-11T01:05:51.089Z,17.77
2018-06-11T01:10:54.459Z,19.67
2018-06-11T01:15:57.847Z,18.67
2018-06-11T01:21:01.198Z,19.60
2018-06-11T01:26:05.669Z,20.80
2018-06-11T01:31:10.977Z,20.92
2018-06-11T01:36:15.348Z,20.27
2018-06-11T01:41:18.735Z,21.87
2018-06-11T01:46:22.110Z,20.57
2018-06-11T01:51:25.463Z,21.40
2018-06-11T01:56:28.801Z,23.53
2018-06-11T02:01:32.162Z,23.80
2018-06-11T02:06:35.527Z,21.70
2018-06-11T02:11:38.849Z,23.60
2018-06-11T02:16:42.192Z,23.57
2018-06-11T02:21:45.616Z,26.10
2018-06-11T02:26:49.022Z,25.50
2018-06-11T02:31:53.876Z,25.70
2018-06-11T02:36:58.700Z,27.30
2018-06-11T02:42:02.075Z,26.05
2018-06-11T02:47:05.569Z,27.00
2018-06-11T02:52:08.980Z,26.10
2018-06-11T02:57:12.337Z,25.10
2018-06-11T03:02:15.708Z,22.13
2018-06-11T03:07:19.026Z,23.02
2018-06-11T03:12:22.491Z,24.72
2018-06-11T03:17:25.872Z,30.55
2018-06-11T03:22:29.262Z,23.95
2018-06-11T03:27:32.591Z,26.40
2018-06-11T03:32:35.941Z,25.17
2018-06-11T03:37:39.995Z,23.75
2018-06-11T03:42:43.407Z,24.25
2018-06-11T03:47:46.897Z,24.23
2018-06-11T03:52:50.339Z,24.30
2018-06-11T03:57:53.703Z,23.10
2018-06-11T04:02:57.132Z,23.42
2018-06-11T04:08:00.506Z,24.43
2018-06-11T04:13:03.952Z,27.57
2018-06-11T04:18:07.339Z,28.27
2018-06-11T04:23:10.685Z,25.77
2018-06-11T04:28:14.127Z,25.90
2018-06-11T04:33:17.554Z,25.75
2018-06-11T04:38:20.933Z,25.13
2018-06-11T04:43:24.322Z,23.65
2018-06-11T04:48:27.686Z,22.82
2018-06-11T04:53:31.002Z,23.85
2018-06-11T04:58:34.302Z,24.57
2018-06-11T05:03:37.653Z,23.00
2018-06-11T05:08:40.961Z,25.97
2018-06-11T05:13:44.318Z,25.23
2018-06-11T05:18:47.894Z,23.60
2018-06-11T05:23:51.347Z,25.65
2018-06-11T05:28:54.840Z,26.02
2018-06-11T05:33:59.279Z,23.03
2018-06-11T05:39:02.734Z,22.80
2018-06-11T05:44:06.126Z,23.42
2018-06-11T05:49:09.563Z,22.80
2018-06-11T05:54:12.887Z,20.15
2018-06-11T05:59:16.259Z,19.32
2018-06-11T06:04:19.671Z,20.15
2018-06-11T06:09:23.485Z,18.40
2018-06-11T06:14:28.935Z,17.40
2018-06-11T06:19:32.447Z,19.40
2018-06-11T06:24:35.915Z,20.30
2018-06-11T06:29:39.464Z,18.63
2018-06-11T06:34:43.061Z,18.55
2018-06-11T06:39:46.430Z,17.73
2018-06-11T06:44:50.511Z,17.30
2018-06-11T06:49:53.972Z,17.07
2018-06-11T06:54:57.387Z,16.45
2018-06-11T07:00:00.868Z,15.60
2018-06-11T07:05:04.358Z,14.73
2018-06-11T07:10:07.839Z,14.70
2018-06-11T07:15:11.287Z,13.13
2018-06-11T07:20:14.775Z,12.50
2018-06-11T07:25:18.155Z,13.80
2018-06-11T07:30:21.622Z,14.35
2018-06-11T07:35:25.064Z,13.72
2018-06-11T07:40:28.427Z,13.28
2018-06-11T07:45:31.845Z,12.30
2018-06-11T07:50:35.222Z,12.50
2018-06-11T07:55:38.564Z,11.75
2018-06-11T08:00:42.013Z,12.80
2018-06-11T08:05:45.406Z,12.25
2018-06-11T08:10:48.849Z,13.00
2018-06-11T08:15:53.291Z,11.90
2018-06-11T08:20:56.661Z,11.15
2018-06-11T08:26:00.097Z,12.78
2018-06-11T08:31:03.558Z,12.80
2018-06-11T08:36:06.989Z,13.28
2018-06-11T08:41:10.382Z,12.65
2018-06-11T08:46:13.766Z,12.70
2018-06-11T08:51:17.120Z,12.73
2018-06-11T08:56:20.917Z,13.45
2018-06-11T09:01:24.294Z,11.63
2018-06-11T09:06:27.706Z,12.65
2018-06-11T09:11:31.276Z,13.93
2018-06-11T09:16:34.620Z,14.47
2018-06-11T09:21:38.023Z,13.13
2018-06-11T09:26:41.534Z,12.30
2018-06-11T09:31:44.894Z,13.10
2018-06-11T09:36:48.339Z,12.37
2018-06-11T09:41:51.661Z,13.65
2018-06-11T09:46:55.328Z,12.40
2018-06-11T09:51:58.822Z,12.37
2018-06-11T09:57:02.230Z,12.80
2018-06-11T10:02:05.607Z,12.25
2018-06-11T10:07:08.996Z,12.25
2018-06-11T10:12:12.411Z,12.97
2018-06-11T10:17:15.759Z,13.95
2018-06-11T10:22:20.323Z,13.30
2018-06-11T10:27:23.719Z,15.40
2018-06-11T10:32:27.099Z,15.53
2018-06-11T10:37:30.478Z,13.85
2018-06-11T10:42:34.486Z,13.27
2018-06-11T10:47:37.864Z,12.25
2018-06-11T10:52:41.205Z,13.53
2018-06-11T10:57:45.485Z,14.20
2018-06-11T11:02:48.846Z,14.25
2018-06-11T11:07:52.242Z,13.83
2018-06-11T11:12:56.192Z,15.15
2018-06-11T11:17:59.533Z,14.50
2018-06-11T11:23:02.984Z,13.60
2018-06-11T11:28:07.235Z,12.55
2018-06-11T11:33:12.067Z,12.83
2018-06-11T11:38:15.477Z,13.13
2018-06-11T11:43:20.216Z,10.97
2018-06-11T11:48:23.562Z,11.25
2018-06-11T11:53:26.923Z,11.80
2018-06-11T11:58:30.324Z,12.63
2018-06-11T12:03:33.706Z,12.50
2018-06-11T12:08:37.108Z,13.38
2018-06-11T12:13:40.421Z,11.67
2018-06-11T12:18:44.386Z,12.43
2018-06-11T12:23:48.723Z,12.90
2018-06-11T12:28:52.232Z,14.00
2018-06-11T12:33:55.763Z,13.97
2018-06-11T12:38:59.417Z,14.38
2018-06-11T12:44:03.140Z,13.35
2018-06-11T12:49:06.559Z,13.68
2018-06-11T12:54:10.239Z,13.72
2018-06-11T12:59:13.670Z,14.67
2018-06-11T13:04:17.236Z,14.00
2018-06-11T13:09:20.703Z,13.77
2018-06-11T13:14:24.126Z,13.60
2018-06-11T13:19:27.654Z,14.07
2018-06-11T13:24:31.260Z,13.20
2018-06-11T13:29:34.611Z,13.40
2018-06-11T13:34:38.851Z,13.30
2018-06-11T13:39:42.235Z,14.20
2018-06-11T13:44:45.841Z,14.10
2018-06-11T13:49:49.319Z,15.10
2018-06-11T13:54:53.017Z,12.88
2018-06-11T13:59:56.522Z,8.78
2018-06-11T14:05:00.068Z,7.93
2018-06-11T14:10:04.554Z,6.95
2018-06-11T14:15:08.306Z,6.90
2018-06-11T14:20:11.846Z,6.93
2018-06-11T14:25:15.235Z,7.17
2018-06-11T14:30:18.617Z,8.00
2018-06-11T14:35:22.144Z,6.50
2018-06-11T14:40:26.453Z,6.78
2018-06-11T14:45:29.945Z,7.83
2018-06-11T14:50:34.504Z,6.20
2018-06-11T14:55:38.751Z,6.80
2018-06-11T15:00:42.191Z,7.15
2018-06-11T15:05:45.578Z,7.97
2018-06-11T15:10:49.032Z,11.97
2018-06-11T15:15:52.578Z,15.93
2018-06-11T15:20:56.020Z,17.40
2018-06-11T15:25:59.826Z,17.10
2018-06-11T15:31:03.261Z,14.75
2018-06-11T15:36:06.740Z,17.37
2018-06-11T15:41:10.175Z,21.33
2018-06-11T15:46:13.646Z,23.22
2018-06-11T15:51:17.057Z,25.25
2018-06-11T15:56:20.502Z,28.70
2018-06-11T16:01:23.879Z,31.48
2018-06-11T16:06:28.015Z,32.00
2018-06-11T16:11:31.423Z,31.02
2018-06-11T16:16:34.902Z,31.60
2018-06-11T16:21:39.653Z,32.15
2018-06-11T16:26:45.059Z,35.40
2018-06-11T16:31:52.991Z,35.85
2018-06-11T16:36:59.888Z,35.45
2018-06-11T16:42:03.546Z,36.70
2018-06-11T16:47:07.452Z,38.47
2018-06-11T16:52:10.972Z,39.60
2018-06-11T16:57:14.462Z,39.33
2018-06-11T17:02:18.166Z,40.38
2018-06-11T17:07:21.684Z,42.58
2018-06-11T17:12:25.113Z,41.30
2018-06-11T17:17:28.582Z,44.15
2018-06-11T17:22:31.957Z,41.87
2018-06-11T17:27:38.076Z,38.40
2018-06-11T17:32:42.403Z,35.73
2018-06-11T17:37:45.801Z,35.78
2018-06-11T17:42:49.867Z,38.27
2018-06-11T17:47:53.300Z,38.47
2018-06-11T17:52:56.725Z,40.15
2018-06-11T17:58:00.140Z,38.03
2018-06-11T18:03:03.609Z,43.40
2018-06-11T18:08:08.142Z,40.70
2018-06-11T18:13:11.602Z,44.23
2018-06-11T18:18:15.322Z,43.60
2018-06-11T18:23:18.874Z,44.45
2018-06-11T18:28:22.768Z,46.50
2018-06-11T18:33:26.764Z,42.60
2018-06-11T18:38:31.256Z,42.87
2018-06-11T18:43:34.768Z,42.45
2018-06-11T18:48:39.515Z,43.10
2018-06-11T18:53:43.023Z,42.83
2018-06-11T18:58:47.237Z,42.43
2018-06-11T19:03:51.071Z,41.35
2018-06-11T19:08:54.691Z,42.05
2018-06-11T19:13:58.043Z,43.87
2018-06-11T19:19:01.489Z,39.00
2018-06-11T19:24:04.889Z,43.30
2018-06-11T19:29:08.250Z,44.08
2018-06-11T19:34:11.759Z,44.25
2018-06-11T19:39:15.114Z,43.07
2018-06-11T19:44:18.590Z,44.45
2018-06-11T19:49:22.087Z,44.47
2018-06-11T19:54:26.364Z,42.33
2018-06-11T19:59:30.075Z,42.43
2018-06-11T20:04:33.618Z,41.35
2018-06-11T20:09:37.200Z,40.70
2018-06-11T20:14:40.616Z,39.83
2018-06-11T20:19:44.167Z,41.10
2018-06-11T20:24:47.791Z,41.80
2018-06-11T20:29:51.209Z,41.73
2018-06-11T20:34:55.084Z,41.45
2018-06-11T20:39:58.728Z,38.15
2018-06-11T20:45:02.300Z,37.00
2018-06-11T20:50:05.836Z,37.28
2018-06-11T20:55:11.103Z,33.92
2018-06-11T21:00:14.538Z,30.50
2018-06-11T21:05:17.985Z,29.90
2018-06-11T21:10:21.490Z,27.27
2018-06-11T21:15:25.062Z,23.87
2018-06-11T21:20:29.177Z,24.47
2018-06-11T21:25:32.635Z,24.43
2018-06-11T21:30:36.039Z,24.03
2018-06-11T21:35:39.438Z,23.05
2018-06-11T21:40:43.526Z,22.55
2018-06-11T21:45:46.854Z,23.70
2018-06-11T21:50:49.931Z,23.70
2018-06-11T21:55:53.711Z,23.05
2018-06-11T22:00:57.110Z,21.52
2018-06-11T22:06:00.486Z,22.87
2018-06-11T22:11:03.938Z,21.68
2018-06-11T22:16:07.321Z,21.85
2018-06-11T22:21:10.673Z,22.10
2018-06-11T22:26:14.159Z,23.80
2018-06-11T22:31:17.591Z,21.90
2018-06-11T22:36:20.939Z,21.17
2018-06-11T22:41:24.557Z,21.47
2018-06-11T22:46:27.953Z,21.50
2018-06-11T22:51:31.319Z,20.70
2018-06-11T22:56:34.751Z,22.15
2018-06-11T23:01:38.120Z,22.97
2018-06-11T23:06:41.640Z,22.13
2018-06-11T23:11:46.033Z,21.20
2018-06-11T23:16:49.402Z,24.67
2018-06-11T23:21:52.906Z,23.30
2018-06-11T23:26:56.264Z,21.62
2018-06-11T23:31:59.761Z,21.80
2018-06-11T23:37:04.070Z,21.20
2018-06-11T23:42:07.459Z,22.40
2018-06-11T23:47:10.867Z,21.20
2018-06-11T23:52:14.345Z,22.70
2018-06-11T23:57:17.671Z,23.10
